createdAt,value
2022-10-13T00:01:08.938Z,13.82
2022-10-13T00:03:37.352Z,14.85
2022-10-13T00:06:07.694Z,15.60
2022-10-13T00:11:02.693Z,15.45
2022-10-13T00:13:30.256Z,15.02
2022-10-13T00:15:57.347Z,14.60
2022-10-13T00:18:28.087Z,14.82
2022-10-13T00:20:57.250Z,16.92
2022-10-13T00:23:24.963Z,16.02
2022-10-13T00:25:52.192Z,14.35
2022-10-13T00:28:20.662Z,15.75
2022-10-13T00:30:48.065Z,15.27
2022-10-13T00:33:15.447Z,14.93
2022-10-13T00:35:47.429Z,15.77
2022-10-13T00:38:17.646Z,15.75
2022-10-13T00:40:51.056Z,14.80
2022-10-13T00:43:20.132Z,15.45
2022-10-13T00:45:51.354Z,16.58
2022-10-13T00:48:31.394Z,15.85
2022-10-13T00:50:59.545Z,15.30
2022-10-13T00:53:32.839Z,15.57
2022-10-13T00:56:00.854Z,15.43
2022-10-13T00:58:32.007Z,14.88
2022-10-13T01:00:59.954Z,15.13
2022-10-13T01:03:27.583Z,15.60
2022-10-13T01:05:57.947Z,16.55
2022-10-13T01:11:23.282Z,15.77
2022-10-13T01:14:02.142Z,16.52
2022-10-13T01:16:44.703Z,15.73
2022-10-13T01:19:54.927Z,16.35
2022-10-13T01:23:04.477Z,17.77
2022-10-13T01:25:50.266Z,16.15
2022-10-13T01:28:38.054Z,15.60
2022-10-13T01:31:16.274Z,17.55
2022-10-13T01:33:58.644Z,17.75
2022-10-13T01:36:56.963Z,18.65
2022-10-13T01:39:52.604Z,17.52
2022-10-13T01:42:26.263Z,19.02
2022-10-13T01:44:59.285Z,18.67
2022-10-13T01:47:27.474Z,17.83
2022-10-13T01:49:55.803Z,18.80
2022-10-13T01:52:26.807Z,17.65
2022-10-13T01:54:55.024Z,18.70
2022-10-13T01:57:34.913Z,19.52
2022-10-13T02:00:08.194Z,18.80
2022-10-13T02:03:01.147Z,20.08
2022-10-13T02:05:38.472Z,19.75
2022-10-13T02:08:17.826Z,19.63
2022-10-13T02:11:02.190Z,19.95
2022-10-13T02:13:32.127Z,19.13
2022-10-13T02:16:01.545Z,17.67
2022-10-13T02:18:35.065Z,20.20
2022-10-13T02:21:03.900Z,17.67
2022-10-13T02:23:32.119Z,18.08
2022-10-13T02:26:00.826Z,19.92
2022-10-13T02:28:28.699Z,19.23
2022-10-13T02:30:55.947Z,19.02
2022-10-13T02:33:23.104Z,19.08
2022-10-13T02:35:50.181Z,18.60
2022-10-13T02:38:19.030Z,19.10
2022-10-13T02:40:46.693Z,19.88
2022-10-13T02:43:13.828Z,20.25
2022-10-13T02:45:41.286Z,20.08
2022-10-13T02:48:08.366Z,20.17
2022-10-13T02:50:35.810Z,19.52
2022-10-13T02:53:03.253Z,18.95
2022-10-13T02:55:30.685Z,20.40
2022-10-13T02:57:58.012Z,20.92
2022-10-13T03:00:26.152Z,19.40
2022-10-13T03:02:54.615Z,21.05
2022-10-13T03:05:21.858Z,19.52
2022-10-13T03:07:49.991Z,20.00
2022-10-13T03:10:17.153Z,20.17
2022-10-13T03:12:44.413Z,18.90
2022-10-13T03:15:11.730Z,21.30
2022-10-13T03:17:38.852Z,20.75
2022-10-13T03:20:07.082Z,20.40
2022-10-13T03:22:34.368Z,19.13
2022-10-13T03:25:01.654Z,18.80
2022-10-13T03:27:29.058Z,19.42
2022-10-13T03:29:56.549Z,18.08
2022-10-13T03:32:23.919Z,21.48
2022-10-13T03:34:51.865Z,20.85
2022-10-13T03:37:18.974Z,21.23
2022-10-13T03:39:46.453Z,19.13
2022-10-13T03:42:13.934Z,18.33
2022-10-13T03:44:42.737Z,19.38
2022-10-13T03:47:10.137Z,18.40
2022-10-13T03:49:39.493Z,18.65
2022-10-13T03:52:06.984Z,18.02
2022-10-13T03:54:34.245Z,18.05
2022-10-13T03:57:02.739Z,19.92
2022-10-13T03:59:35.701Z,19.20
2022-10-13T04:02:04.053Z,18.25
2022-10-13T04:04:31.453Z,19.35
2022-10-13T04:06:58.757Z,20.45
2022-10-13T04:09:26.177Z,16.95
2022-10-13T04:11:53.576Z,18.58
2022-10-13T04:14:20.755Z,17.92
2022-10-13T04:16:48.382Z,18.55
2022-10-13T04:19:16.344Z,20.23
2022-10-13T04:21:44.397Z,18.15
2022-10-13T04:24:15.016Z,17.65
2022-10-13T04:26:42.621Z,18.58
2022-10-13T04:29:11.563Z,19.73
2022-10-13T04:31:40.966Z,18.38
2022-10-13T04:34:08.721Z,18.95
2022-10-13T04:36:35.939Z,18.95
2022-10-13T04:39:03.845Z,19.10
2022-10-13T04:44:02.729Z,19.05
2022-10-13T04:46:30.408Z,17.95
2022-10-13T04:48:58.081Z,19.30
2022-10-13T04:51:32.729Z,17.85
2022-10-13T04:54:02.287Z,17.15
2022-10-13T04:56:30.009Z,17.88
2022-10-13T04:59:05.494Z,17.85
2022-10-13T05:01:33.494Z,16.92
2022-10-13T05:04:03.745Z,16.15
2022-10-13T05:06:58.839Z,16.83
2022-10-13T05:09:27.479Z,17.67
2022-10-13T05:11:57.917Z,17.15
2022-10-13T05:14:25.159Z,17.15
2022-10-13T05:16:52.478Z,17.05
2022-10-13T05:19:20.733Z,18.02
2022-10-13T05:21:49.715Z,17.25
2022-10-13T05:24:16.934Z,17.30
2022-10-13T05:26:47.638Z,18.15
2022-10-13T05:29:15.175Z,18.27
2022-10-13T05:31:42.257Z,16.50
2022-10-13T05:34:09.835Z,17.20
2022-10-13T05:36:36.983Z,17.15
2022-10-13T05:39:07.804Z,17.05
2022-10-13T05:41:36.283Z,16.63
2022-10-13T05:44:10.666Z,18.30
2022-10-13T05:46:44.198Z,17.92
2022-10-13T05:49:11.687Z,16.85
2022-10-13T05:51:44.127Z,18.15
2022-10-13T05:54:26.345Z,16.20
2022-10-13T05:57:07.857Z,16.60
2022-10-13T05:59:40.307Z,16.98
2022-10-13T06:02:10.645Z,16.75
2022-10-13T06:07:12.061Z,17.67
2022-10-13T06:09:40.858Z,17.17
2022-10-13T06:12:09.706Z,18.35
2022-10-13T06:14:38.056Z,17.58
2022-10-13T06:17:07.545Z,17.88
2022-10-13T06:19:34.891Z,17.27
2022-10-13T06:22:07.632Z,16.92
2022-10-13T06:24:35.158Z,17.88
2022-10-13T06:27:04.199Z,16.70
2022-10-13T06:29:33.301Z,18.10
2022-10-13T06:32:00.578Z,17.02
2022-10-13T06:34:27.994Z,18.05
2022-10-13T06:36:56.067Z,15.57
2022-10-13T06:39:23.203Z,16.58
2022-10-13T06:41:50.976Z,16.30
2022-10-13T06:44:18.129Z,15.77
2022-10-13T06:46:45.203Z,14.95
2022-10-13T06:49:12.538Z,16.10
2022-10-13T06:51:39.952Z,15.70
2022-10-13T06:54:07.174Z,17.35
2022-10-13T06:56:34.383Z,14.93
2022-10-13T06:59:09.628Z,16.73
2022-10-13T07:01:41.479Z,16.27
2022-10-13T07:04:13.194Z,16.50
2022-10-13T07:06:40.716Z,16.85
2022-10-13T07:09:09.275Z,16.92
2022-10-13T07:11:36.555Z,17.33
2022-10-13T07:14:03.908Z,15.38
2022-10-13T07:16:31.712Z,15.55
2022-10-13T07:18:58.793Z,16.35
2022-10-13T07:21:25.992Z,14.60
2022-10-13T07:23:53.118Z,15.95
2022-10-13T07:26:21.120Z,15.52
2022-10-13T07:28:48.813Z,15.48
2022-10-13T07:31:18.681Z,14.73
2022-10-13T07:33:49.002Z,15.18
2022-10-13T07:36:17.680Z,14.63
2022-10-13T07:38:45.157Z,14.55
2022-10-13T07:41:13.243Z,15.13
2022-10-13T07:43:40.937Z,14.57
2022-10-13T07:46:10.552Z,14.75
2022-10-13T07:48:37.665Z,13.85
2022-10-13T07:51:07.964Z,14.10
2022-10-13T07:56:05.414Z,28.58
2022-10-13T07:58:36.883Z,14.70
2022-10-13T08:01:04.696Z,14.57
2022-10-13T08:03:34.223Z,15.80
2022-10-13T08:06:02.844Z,20.88
2022-10-13T08:08:30.906Z,14.77
2022-10-13T08:11:07.000Z,14.80
2022-10-13T08:13:35.101Z,11.68
2022-10-13T08:16:13.772Z,24.17
2022-10-13T08:18:41.432Z,15.20
2022-10-13T08:21:53.254Z,17.30
2022-10-13T08:24:00.750Z,11.80
2022-10-13T08:26:29.342Z,11.52
2022-10-13T08:29:16.791Z,11.43
2022-10-13T08:31:45.105Z,11.13
2022-10-13T08:34:12.787Z,10.25
2022-10-13T08:36:40.789Z,11.07
2022-10-13T08:39:08.424Z,9.77
2022-10-13T08:41:44.020Z,10.05
2022-10-13T08:47:42.050Z,10.13
2022-10-13T08:50:23.494Z,8.95
2022-10-13T08:55:28.307Z,9.00
2022-10-13T08:57:55.913Z,8.43
2022-10-13T09:00:26.940Z,7.93
2022-10-13T09:02:54.349Z,7.93
2022-10-13T09:05:41.847Z,7.80
2022-10-13T09:08:19.683Z,7.78
2022-10-13T09:10:51.504Z,7.50
2022-10-13T09:13:19.992Z,8.20
2022-10-13T09:15:50.743Z,7.07
2022-10-13T09:18:18.943Z,6.60
2022-10-13T09:20:46.200Z,6.28
2022-10-13T09:23:23.214Z,6.50
2022-10-13T09:25:52.659Z,5.63
2022-10-13T09:28:30.858Z,5.38
2022-10-13T09:31:35.845Z,5.68
2022-10-13T09:34:15.448Z,5.00
2022-10-13T09:37:03.775Z,5.75
2022-10-13T09:39:32.246Z,5.70
2022-10-13T09:42:18.534Z,5.07
2022-10-13T09:44:47.293Z,5.47
2022-10-13T09:47:22.102Z,6.00
2022-10-13T09:50:19.886Z,5.45
2022-10-13T09:52:48.243Z,5.30
2022-10-13T09:55:34.284Z,4.53
2022-10-13T09:58:07.445Z,5.55
2022-10-13T10:00:35.632Z,4.55
2022-10-13T10:03:11.201Z,4.97
2022-10-13T10:05:54.159Z,4.88
2022-10-13T10:09:04.325Z,4.40
2022-10-13T10:14:28.940Z,4.43
2022-10-13T10:17:31.713Z,5.03
2022-10-13T10:20:24.573Z,4.45
2022-10-13T10:23:20.634Z,5.28
2022-10-13T10:25:52.597Z,5.20
2022-10-13T10:28:29.508Z,4.78
2022-10-13T10:31:39.374Z,5.28
2022-10-13T10:34:18.333Z,4.30
2022-10-13T10:37:08.957Z,4.45
2022-10-13T10:39:39.143Z,4.43
2022-10-13T10:42:09.047Z,4.43
2022-10-13T10:44:41.870Z,4.10
2022-10-13T10:47:23.759Z,4.43
2022-10-13T10:49:55.946Z,5.72
2022-10-13T10:52:30.506Z,4.85
2022-10-13T10:55:02.178Z,4.28
2022-10-13T10:57:38.334Z,4.57
2022-10-13T11:00:39.705Z,4.28
2022-10-13T11:03:22.206Z,5.03
2022-10-13T11:05:58.375Z,3.80
2022-10-13T11:08:42.163Z,4.25
2022-10-13T11:11:26.663Z,4.32
2022-10-13T11:14:01.956Z,4.00
2022-10-13T11:16:29.365Z,4.45
2022-10-13T11:19:08.672Z,4.40
2022-10-13T11:21:54.081Z,4.88
2022-10-13T11:24:39.871Z,4.30
2022-10-13T11:27:12.823Z,4.47
2022-10-13T11:29:58.102Z,4.55
2022-10-13T11:32:41.436Z,4.30
2022-10-13T11:35:08.846Z,4.80
2022-10-13T11:38:05.582Z,4.82
2022-10-13T11:40:41.806Z,4.63
2022-10-13T11:43:32.113Z,5.13
2022-10-13T11:46:05.373Z,4.38
2022-10-13T11:49:00.146Z,4.30
2022-10-13T11:52:12.751Z,4.70
2022-10-13T11:54:48.620Z,5.00
2022-10-13T11:57:24.482Z,4.25
2022-10-13T11:59:55.638Z,4.88
2022-10-13T12:02:51.587Z,3.80
2022-10-13T12:05:26.943Z,4.63
2022-10-13T12:07:58.926Z,4.53
2022-10-13T12:10:36.283Z,8.32
2022-10-13T12:13:06.561Z,5.30
2022-10-13T12:15:37.967Z,4.38
2022-10-13T12:18:39.421Z,4.05
2022-10-13T12:21:15.418Z,4.43
2022-10-13T12:23:42.637Z,4.30
2022-10-13T12:26:25.992Z,4.75
2022-10-13T12:29:04.363Z,5.25
2022-10-13T12:31:47.344Z,4.40
2022-10-13T12:34:21.983Z,5.97
2022-10-13T12:36:56.357Z,6.90
2022-10-13T12:39:26.028Z,4.50
2022-10-13T12:41:54.757Z,5.90
2022-10-13T12:44:27.953Z,4.55
2022-10-13T12:47:02.253Z,4.65
2022-10-13T12:49:35.725Z,4.10
2022-10-13T12:52:34.640Z,4.35
2022-10-13T12:55:02.366Z,4.20
2022-10-13T12:57:38.836Z,4.57
2022-10-13T13:00:18.894Z,5.03
2022-10-13T13:03:22.476Z,5.07
2022-10-13T13:05:52.883Z,4.50
2022-10-13T13:08:31.995Z,4.78
2022-10-13T13:11:07.987Z,4.22
2022-10-13T13:13:35.183Z,5.03
2022-10-13T13:16:37.494Z,4.40
2022-10-13T13:19:04.777Z,4.57
2022-10-13T13:21:31.894Z,5.10
2022-10-13T13:23:59.452Z,5.00
2022-10-13T13:26:28.694Z,4.70
2022-10-13T13:28:57.291Z,4.47
2022-10-13T13:31:26.109Z,4.35
2022-10-13T13:33:53.646Z,4.68
2022-10-13T13:36:23.327Z,4.72
2022-10-13T13:38:53.108Z,4.78
2022-10-13T13:41:21.553Z,4.40
2022-10-13T13:43:49.113Z,4.30
2022-10-13T13:46:24.903Z,4.60
2022-10-13T13:48:52.573Z,4.40
2022-10-13T13:51:19.796Z,4.93
2022-10-13T13:53:48.448Z,5.28
2022-10-13T13:56:18.850Z,5.95
2022-10-13T14:01:14.374Z,5.20
2022-10-13T14:03:41.948Z,4.72
2022-10-13T14:06:19.519Z,7.97
2022-10-13T14:08:46.886Z,5.25
2022-10-13T14:11:14.195Z,4.70
2022-10-13T14:13:41.327Z,5.32
2022-10-13T14:16:15.251Z,5.47
2022-10-13T14:18:42.633Z,7.65
2022-10-13T14:21:09.865Z,8.48
2022-10-13T14:23:37.202Z,8.35
2022-10-13T14:26:09.927Z,16.05
2022-10-13T14:28:37.347Z,4.68
2022-10-13T14:31:07.959Z,5.70
2022-10-13T14:33:36.112Z,12.60
2022-10-13T14:36:06.108Z,6.47
2022-10-13T14:38:34.339Z,4.78
2022-10-13T14:41:03.014Z,33.78
2022-10-13T14:43:30.717Z,7.85
2022-10-13T14:46:07.273Z,6.45
2022-10-13T14:48:36.283Z,21.20
2022-10-13T14:51:08.574Z,6.22
2022-10-13T14:53:37.594Z,11.15
2022-10-13T14:56:21.082Z,17.42
2022-10-13T14:58:54.380Z,6.40
2022-10-13T15:01:21.874Z,6.10
2022-10-13T15:03:49.497Z,6.03
2022-10-13T15:06:22.465Z,5.68
2022-10-13T15:08:49.794Z,5.35
2022-10-13T15:11:18.670Z,5.20
2022-10-13T15:13:46.363Z,4.90
2022-10-13T15:16:19.483Z,4.72
2022-10-13T15:18:46.913Z,5.18
2022-10-13T15:21:14.606Z,4.97
2022-10-13T15:23:42.403Z,4.90
2022-10-13T15:26:12.642Z,5.10
2022-10-13T15:28:43.099Z,5.30
2022-10-13T15:31:11.251Z,6.03
2022-10-13T15:33:38.645Z,5.22
2022-10-13T15:36:06.113Z,5.20
2022-10-13T15:38:33.587Z,5.28
2022-10-13T15:41:01.330Z,5.05
2022-10-13T15:43:29.216Z,5.07
2022-10-13T15:46:08.256Z,5.38
2022-10-13T15:48:35.773Z,5.18
2022-10-13T15:51:09.427Z,5.22
2022-10-13T15:53:36.911Z,5.78
2022-10-13T15:56:03.978Z,5.38
2022-10-13T15:58:31.195Z,5.35
2022-10-13T16:00:58.483Z,5.10
2022-10-13T16:03:30.098Z,5.72
2022-10-13T16:05:57.245Z,6.38
2022-10-13T16:08:24.435Z,5.95
2022-10-13T16:10:51.633Z,6.20
2022-10-13T16:13:19.946Z,6.45
2022-10-13T16:15:58.392Z,6.20
2022-10-13T16:18:30.241Z,5.85
2022-10-13T16:20:57.569Z,5.90
2022-10-13T16:23:25.498Z,6.95
2022-10-13T16:25:52.854Z,6.80
2022-10-13T16:28:20.105Z,7.10
2022-10-13T16:30:47.399Z,7.78
2022-10-13T16:33:14.593Z,7.53
2022-10-13T16:35:41.953Z,8.60
2022-10-13T16:38:09.686Z,8.20
2022-10-13T16:40:39.696Z,7.90
2022-10-13T16:43:07.325Z,8.50
2022-10-13T16:45:55.190Z,8.55
2022-10-13T16:48:21.928Z,9.05
2022-10-13T16:50:49.353Z,8.80
2022-10-13T16:53:21.290Z,8.77
2022-10-13T16:55:48.585Z,8.25
2022-10-13T16:58:16.252Z,8.73
2022-10-13T17:00:43.474Z,8.85
2022-10-13T17:03:10.793Z,9.07
2022-10-13T17:05:38.024Z,9.55
2022-10-13T17:08:05.290Z,9.35
2022-10-13T17:10:33.655Z,10.23
2022-10-13T17:13:01.847Z,9.95
2022-10-13T17:15:32.359Z,10.20
2022-10-13T17:17:59.613Z,11.27
2022-10-13T17:20:26.901Z,11.13
2022-10-13T17:22:54.853Z,11.43
2022-10-13T17:25:22.188Z,12.18
2022-10-13T17:27:49.372Z,11.85
2022-10-13T17:30:16.540Z,12.23
2022-10-13T17:32:44.053Z,12.50
2022-10-13T17:35:14.614Z,11.98
2022-10-13T17:37:41.958Z,11.35
2022-10-13T17:40:12.767Z,11.40
2022-10-13T17:42:40.244Z,11.80
2022-10-13T17:45:07.968Z,10.90
2022-10-13T17:47:35.188Z,11.13
2022-10-13T17:50:02.387Z,10.98
2022-10-13T17:52:29.687Z,10.73
2022-10-13T17:54:56.988Z,11.23
2022-10-13T17:57:30.237Z,10.43
2022-10-13T18:00:05.121Z,9.90
2022-10-13T18:02:39.633Z,10.98
2022-10-13T18:05:07.314Z,9.85
2022-10-13T18:07:34.653Z,10.52
2022-10-13T18:10:01.778Z,10.35
2022-10-13T18:12:29.029Z,10.52
2022-10-13T18:14:56.164Z,10.30
2022-10-13T18:17:23.644Z,9.80
2022-10-13T18:19:51.325Z,9.48
2022-10-13T18:22:18.459Z,10.05
2022-10-13T18:24:46.757Z,9.85
2022-10-13T18:27:13.948Z,10.63
2022-10-13T18:29:42.440Z,11.45
2022-10-13T18:32:09.692Z,10.90
2022-10-13T18:34:37.144Z,10.93
2022-10-13T18:37:05.974Z,11.80
2022-10-13T18:39:34.683Z,11.90
2022-10-13T18:42:01.948Z,12.20
2022-10-13T18:44:34.627Z,11.95
2022-10-13T18:47:01.862Z,12.15
2022-10-13T18:49:31.726Z,12.52
2022-10-13T18:52:02.591Z,12.60
2022-10-13T18:54:30.605Z,12.27
2022-10-13T18:56:58.254Z,12.38
2022-10-13T18:59:25.589Z,12.57
2022-10-13T19:01:52.828Z,13.93
2022-10-13T19:04:22.766Z,14.25
2022-10-13T19:06:50.865Z,13.48
2022-10-13T19:09:18.038Z,14.43
2022-10-13T19:11:45.426Z,14.77
2022-10-13T19:14:16.542Z,14.75
2022-10-13T19:16:44.600Z,14.82
2022-10-13T19:19:12.091Z,14.15
2022-10-13T19:21:39.812Z,14.88
2022-10-13T19:24:09.632Z,14.93
2022-10-13T19:26:37.287Z,14.88
2022-10-13T19:29:10.574Z,15.43
2022-10-13T19:31:39.580Z,14.75
2022-10-13T19:34:10.324Z,16.75
2022-10-13T19:36:41.171Z,15.77
2022-10-13T19:39:16.496Z,17.40
2022-10-13T19:41:45.279Z,15.65
2022-10-13T19:44:12.823Z,16.58
2022-10-13T19:46:41.799Z,15.85
2022-10-13T19:49:09.594Z,17.75
2022-10-13T19:51:41.845Z,17.73
2022-10-13T19:56:36.653Z,17.52
2022-10-13T19:59:05.565Z,17.77
2022-10-13T20:01:40.082Z,18.00
2022-10-13T20:04:14.401Z,17.80
2022-10-13T20:06:44.411Z,18.50
2022-10-13T20:09:12.312Z,18.05
2022-10-13T20:11:39.468Z,19.45
2022-10-13T20:14:06.639Z,18.05
2022-10-13T20:16:33.787Z,19.10
2022-10-13T20:19:01.508Z,19.83
2022-10-13T20:21:29.706Z,19.60
2022-10-13T20:23:57.609Z,20.35
2022-10-13T20:26:25.825Z,20.05
2022-10-13T20:28:53.905Z,19.35
2022-10-13T20:31:22.537Z,20.73
2022-10-13T20:33:57.187Z,20.58
2022-10-13T20:36:28.947Z,22.50
2022-10-13T20:38:56.179Z,20.67
2022-10-13T20:41:29.636Z,19.67
2022-10-13T20:43:59.383Z,21.80
2022-10-13T20:46:27.562Z,21.85
2022-10-13T20:49:12.204Z,23.02
2022-10-13T20:51:40.724Z,22.67
2022-10-13T20:54:08.114Z,21.63
2022-10-13T20:56:35.948Z,23.08
2022-10-13T20:59:04.986Z,22.70
2022-10-13T21:01:32.980Z,22.98
2022-10-13T21:04:00.227Z,21.00
2022-10-13T21:06:27.665Z,24.02
2022-10-13T21:08:57.103Z,23.05
2022-10-13T21:11:25.125Z,22.45
2022-10-13T21:13:53.327Z,22.38
2022-10-13T21:16:29.311Z,22.55
2022-10-13T21:18:57.940Z,21.80
2022-10-13T21:21:29.467Z,22.30
2022-10-13T21:23:59.052Z,23.00
2022-10-13T21:26:27.871Z,22.52
2022-10-13T21:28:55.290Z,22.17
2022-10-13T21:31:23.611Z,22.80
2022-10-13T21:33:51.153Z,22.15
2022-10-13T21:36:28.585Z,23.35
2022-10-13T21:38:58.756Z,23.73
2022-10-13T21:41:26.873Z,22.60
2022-10-13T21:43:54.405Z,22.30
2022-10-13T21:46:25.471Z,22.40
2022-10-13T21:48:57.564Z,22.27
2022-10-13T21:51:29.326Z,22.13
2022-10-13T21:53:59.443Z,22.60
2022-10-13T21:56:28.067Z,22.85
2022-10-13T21:58:55.365Z,22.38
2022-10-13T22:01:23.571Z,22.90
2022-10-13T22:03:57.121Z,22.05
2022-10-13T22:06:28.567Z,22.10
2022-10-13T22:08:57.782Z,21.52
2022-10-13T22:11:27.017Z,21.42
2022-10-13T22:13:56.516Z,22.65
2022-10-13T22:16:26.344Z,23.60
2022-10-13T22:18:55.678Z,22.88
2022-10-13T22:21:28.283Z,21.33
2022-10-13T22:24:02.635Z,22.00
2022-10-13T22:26:32.825Z,22.00
2022-10-13T22:29:01.514Z,22.02
2022-10-13T22:31:29.360Z,22.17
2022-10-13T22:33:57.043Z,23.67
2022-10-13T22:36:25.785Z,21.70
2022-10-13T22:38:56.475Z,22.80
2022-10-13T22:41:23.794Z,23.60
2022-10-13T22:43:52.713Z,23.00
2022-10-13T22:46:22.966Z,21.95
2022-10-13T22:48:50.439Z,22.58
2022-10-13T22:51:20.281Z,21.00
2022-10-13T22:53:48.597Z,22.55
2022-10-13T22:56:18.916Z,22.23
2022-10-13T23:03:47.854Z,21.90
2022-10-13T23:06:17.093Z,20.70
2022-10-13T23:08:44.614Z,21.10
2022-10-13T23:11:11.764Z,21.38
2022-10-13T23:13:38.875Z,22.40
2022-10-13T23:16:14.931Z,22.35
2022-10-13T23:18:45.207Z,22.60
2022-10-13T23:21:27.515Z,22.73
2022-10-13T23:24:00.643Z,22.15
2022-10-13T23:26:28.972Z,23.08
2022-10-13T23:28:57.408Z,22.50
2022-10-13T23:31:25.785Z,21.85
2022-10-13T23:33:53.413Z,22.42
2022-10-13T23:36:24.054Z,22.20
2022-10-13T23:38:59.057Z,22.08
2022-10-13T23:41:27.222Z,22.17
2022-10-13T23:43:54.937Z,21.95
2022-10-13T23:46:22.067Z,23.10
2022-10-13T23:48:49.366Z,22.65
2022-10-13T23:51:19.370Z,23.77
2022-10-13T23:53:47.933Z,23.52
2022-10-13T23:56:15.606Z,22.83
2022-10-13T23:58:44.471Z,22.15
